createdAt,value
2017-06-18T00:01:02.093Z,76.10
2017-06-18T00:03:29.658Z,76.20
2017-06-18T00:05:57.278Z,76.20
2017-06-18T00:08:24.837Z,76.40
2017-06-18T00:10:52.407Z,76.40
2017-06-18T00:13:20.267Z,76.30
2017-06-18T00:15:47.826Z,76.50
2017-06-18T00:18:15.395Z,76.60
2017-06-18T00:20:43.039Z,76.60
2017-06-18T00:23:10.615Z,76.60
2017-06-18T00:25:38.178Z,76.60
2017-06-18T00:28:05.925Z,76.60
2017-06-18T00:30:33.498Z,76.70
2017-06-18T00:33:01.302Z,76.60
2017-06-18T00:35:28.930Z,76.80
2017-06-18T00:37:56.482Z,76.90
2017-06-18T00:40:24.033Z,76.80
2017-06-18T00:42:51.661Z,77.00
2017-06-18T00:45:19.206Z,77.00
2017-06-18T00:47:46.763Z,77.10
2017-06-18T00:50:18.778Z,77.10
2017-06-18T00:52:46.338Z,77.10
2017-06-18T00:55:13.905Z,77.20
2017-06-18T00:57:41.749Z,77.10
2017-06-18T01:00:09.362Z,77.20
2017-06-18T01:02:37.690Z,77.30
2017-06-18T01:05:05.247Z,77.20
2017-06-18T01:07:32.941Z,77.40
2017-06-18T01:10:00.498Z,77.30
2017-06-18T01:12:28.058Z,77.40
2017-06-18T01:14:55.653Z,77.30
2017-06-18T01:17:24.048Z,77.30
2017-06-18T01:19:51.610Z,77.10
2017-06-18T01:22:19.162Z,77.10
2017-06-18T01:24:46.909Z,77.00
2017-06-18T01:27:15.241Z,77.20
2017-06-18T01:29:42.830Z,77.10
2017-06-18T01:32:10.379Z,77.30
2017-06-18T01:34:37.939Z,77.30
2017-06-18T01:37:05.578Z,77.30
2017-06-18T01:39:33.134Z,77.30
2017-06-18T01:42:00.689Z,77.20
2017-06-18T01:44:28.366Z,77.30
2017-06-18T01:46:55.958Z,77.30
2017-06-18T01:49:23.514Z,77.30
2017-06-18T01:51:51.166Z,77.40
2017-06-18T01:54:18.710Z,77.60
2017-06-18T01:56:46.699Z,77.70
2017-06-18T01:59:14.298Z,77.60
2017-06-18T02:01:42.845Z,77.50
2017-06-18T02:04:10.394Z,77.50
2017-06-18T02:06:37.995Z,77.40
2017-06-18T02:09:06.310Z,77.50
2017-06-18T02:11:33.898Z,77.60
2017-06-18T02:14:01.443Z,77.50
2017-06-18T02:16:29.334Z,77.60
2017-06-18T02:18:56.886Z,77.60
2017-06-18T02:21:24.431Z,77.70
2017-06-18T02:23:52.014Z,77.80
2017-06-18T02:26:20.500Z,78.10
2017-06-18T02:28:48.107Z,78.20
2017-06-18T02:31:15.654Z,78.30
2017-06-18T02:33:43.975Z,78.40
2017-06-18T02:36:11.627Z,78.30
2017-06-18T02:38:39.173Z,78.40
2017-06-18T02:41:06.770Z,78.30
2017-06-18T02:43:34.317Z,78.30
2017-06-18T02:46:02.202Z,78.30
2017-06-18T02:48:29.814Z,78.30
2017-06-18T02:50:57.763Z,78.30
2017-06-18T02:53:25.362Z,78.50
2017-06-18T02:55:52.918Z,79.30
2017-06-18T02:58:20.930Z,78.50
2017-06-18T03:00:48.481Z,78.50
2017-06-18T03:03:16.031Z,78.60
2017-06-18T03:05:43.646Z,78.50
2017-06-18T03:08:11.954Z,78.60
2017-06-18T03:10:39.508Z,78.40
2017-06-18T03:13:07.361Z,78.50
2017-06-18T03:15:34.909Z,78.50
2017-06-18T03:18:03.293Z,78.40
2017-06-18T03:20:30.859Z,78.40
2017-06-18T03:23:04.218Z,78.40
2017-06-18T03:25:32.144Z,78.40
2017-06-18T03:27:59.698Z,78.50
2017-06-18T03:30:27.254Z,78.60
2017-06-18T03:32:55.035Z,78.70
2017-06-18T03:35:22.614Z,78.60
2017-06-18T03:37:50.201Z,78.60
2017-06-18T03:40:17.745Z,78.70
2017-06-18T03:42:45.353Z,78.70
2017-06-18T03:45:12.901Z,78.70
2017-06-18T03:47:42.427Z,79.00
2017-06-18T03:50:11.566Z,78.90
2017-06-18T03:52:39.117Z,79.20
2017-06-18T03:55:07.911Z,79.50
2017-06-18T03:57:37.115Z,79.50
2017-06-18T04:00:04.661Z,79.50
2017-06-18T04:02:32.213Z,79.60
2017-06-18T04:04:59.801Z,79.60
2017-06-18T04:07:27.356Z,79.40
2017-06-18T04:09:54.999Z,79.40
2017-06-18T04:12:22.545Z,79.40
2017-06-18T04:14:50.150Z,79.50
2017-06-18T04:17:17.698Z,79.60
2017-06-18T04:19:45.289Z,79.90
2017-06-18T04:22:13.606Z,80.20
2017-06-18T04:24:41.355Z,79.90
2017-06-18T04:27:08.906Z,79.90
2017-06-18T04:29:37.215Z,79.90
2017-06-18T04:32:04.798Z,79.80
2017-06-18T04:34:32.345Z,79.90
2017-06-18T04:36:59.991Z,79.80
2017-06-18T04:39:27.545Z,79.90
2017-06-18T04:41:55.083Z,79.80
2017-06-18T04:44:26.122Z,79.40
2017-06-18T04:46:54.439Z,79.40
2017-06-18T04:49:21.986Z,79.30
2017-06-18T04:51:49.653Z,79.40
2017-06-18T04:54:17.197Z,79.30
2017-06-18T04:56:44.862Z,79.10
2017-06-18T04:59:12.550Z,79.10
2017-06-18T05:01:45.353Z,79.10
2017-06-18T05:04:12.906Z,79.00
2017-06-18T05:06:40.452Z,79.10
2017-06-18T05:09:08.043Z,79.00
2017-06-18T05:11:35.598Z,79.00
2017-06-18T05:14:03.216Z,78.90
2017-06-18T05:16:30.782Z,79.00
2017-06-18T05:18:58.517Z,78.90
2017-06-18T05:21:26.830Z,78.80
2017-06-18T05:23:54.377Z,78.80
2017-06-18T05:26:21.970Z,78.80
2017-06-18T05:28:49.514Z,78.80
2017-06-18T05:31:17.145Z,78.90
2017-06-18T05:33:45.461Z,78.90
2017-06-18T05:36:13.023Z,78.90
2017-06-18T05:38:40.807Z,79.00
2017-06-18T05:41:08.354Z,79.00
2017-06-18T05:43:35.945Z,78.90
2017-06-18T05:46:03.494Z,78.80
2017-06-18T05:48:31.101Z,78.80
2017-06-18T05:50:58.654Z,78.70
2017-06-18T05:53:26.214Z,78.60
2017-06-18T05:55:53.882Z,78.30
2017-06-18T05:58:21.434Z,78.10
2017-06-18T06:00:49.936Z,78.20
2017-06-18T06:03:17.482Z,78.10
2017-06-18T06:05:45.071Z,78.00
2017-06-18T06:08:13.637Z,77.80
2017-06-18T06:10:41.219Z,77.70
2017-06-18T06:13:08.769Z,77.60
2017-06-18T06:15:36.441Z,77.50
2017-06-18T06:18:04.029Z,77.10
2017-06-18T06:20:31.575Z,77.10
2017-06-18T06:22:59.185Z,77.00
2017-06-18T06:25:26.735Z,76.70
2017-06-18T06:27:55.053Z,76.50
2017-06-18T06:30:22.645Z,76.50
2017-06-18T06:32:50.189Z,76.40
2017-06-18T06:35:17.929Z,76.20
2017-06-18T06:37:45.477Z,76.10
2017-06-18T06:40:13.026Z,75.80
2017-06-18T06:42:41.769Z,75.20
2017-06-18T06:45:09.314Z,75.20
2017-06-18T06:47:36.854Z,75.20
2017-06-18T06:50:04.966Z,74.80
2017-06-18T06:52:32.511Z,74.40
2017-06-18T06:55:00.064Z,74.40
2017-06-18T06:57:27.658Z,74.20
2017-06-18T06:59:55.209Z,74.00
2017-06-18T07:02:22.809Z,73.50
2017-06-18T07:04:50.362Z,73.20
2017-06-18T07:07:18.800Z,72.70
2017-06-18T07:09:46.730Z,72.70
2017-06-18T07:12:14.336Z,72.50
2017-06-18T07:14:41.889Z,71.90
2017-06-18T07:17:09.442Z,71.40
2017-06-18T07:19:37.114Z,70.90
2017-06-18T07:22:04.659Z,70.40
2017-06-18T07:24:32.209Z,70.00
2017-06-18T07:27:00.221Z,69.80
2017-06-18T07:29:29.282Z,69.00
2017-06-18T07:31:56.890Z,69.00
2017-06-18T07:34:24.502Z,68.50
2017-06-18T07:36:52.050Z,68.40
2017-06-18T07:39:19.594Z,68.20
2017-06-18T07:41:48.038Z,68.10
2017-06-18T07:44:15.589Z,67.50
2017-06-18T07:46:43.238Z,66.90
2017-06-18T07:49:10.785Z,66.20
2017-06-18T07:51:38.450Z,65.70
2017-06-18T07:54:06.014Z,65.80
2017-06-18T07:56:33.585Z,65.70
2017-06-18T07:59:01.320Z,64.90
2017-06-18T08:01:28.895Z,64.00
2017-06-18T08:03:57.819Z,63.80
2017-06-18T08:06:25.359Z,64.10
2017-06-18T08:08:53.341Z,64.10
2017-06-18T08:11:20.902Z,64.40
2017-06-18T08:13:48.438Z,64.40
2017-06-18T08:16:16.061Z,64.10
2017-06-18T08:18:43.610Z,63.50
2017-06-18T08:21:11.453Z,62.90
2017-06-18T08:23:38.994Z,62.70
2017-06-18T08:26:06.541Z,61.40
2017-06-18T08:28:34.126Z,60.90
2017-06-18T08:31:01.734Z,60.60
2017-06-18T08:33:30.042Z,60.00
2017-06-18T08:35:57.617Z,59.90
2017-06-18T08:38:25.164Z,59.60
2017-06-18T08:40:53.163Z,59.20
2017-06-18T08:43:20.745Z,58.80
2017-06-18T08:45:48.289Z,58.60
2017-06-18T08:48:15.909Z,58.70
2017-06-18T08:50:43.454Z,58.90
2017-06-18T08:53:10.997Z,59.00
2017-06-18T08:55:39.365Z,59.10
2017-06-18T08:58:10.082Z,59.10
2017-06-18T09:00:37.633Z,58.90
2017-06-18T09:03:05.213Z,59.00
2017-06-18T09:05:32.758Z,59.20
2017-06-18T09:08:00.339Z,59.30
2017-06-18T09:10:29.068Z,59.40
2017-06-18T09:12:56.653Z,59.60
2017-06-18T09:15:24.200Z,59.80
2017-06-18T09:17:52.701Z,59.80
2017-06-18T09:20:20.314Z,58.90
2017-06-18T09:22:48.618Z,58.40
2017-06-18T09:25:16.201Z,58.30
2017-06-18T09:27:43.741Z,58.40
2017-06-18T09:30:11.331Z,58.80
2017-06-18T09:32:38.918Z,58.60
2017-06-18T09:35:06.865Z,57.90
2017-06-18T09:37:34.403Z,57.80
2017-06-18T09:40:01.946Z,58.20
2017-06-18T09:42:30.062Z,58.10
2017-06-18T09:44:57.607Z,58.00
2017-06-18T09:47:25.144Z,58.00
2017-06-18T09:49:53.042Z,57.70
2017-06-18T09:52:20.591Z,57.60
2017-06-18T09:54:48.574Z,57.80
2017-06-18T09:57:16.120Z,58.10
2017-06-18T09:59:43.868Z,58.10
2017-06-18T10:02:11.497Z,58.00
2017-06-18T10:04:39.811Z,57.40
2017-06-18T10:07:07.353Z,57.40
2017-06-18T10:09:35.119Z,56.90
2017-06-18T10:12:02.704Z,56.30
2017-06-18T10:14:30.247Z,56.00
2017-06-18T10:16:57.834Z,56.00
2017-06-18T10:19:25.574Z,55.00
2017-06-18T10:21:58.906Z,55.40
2017-06-18T10:24:26.444Z,55.70
2017-06-18T10:26:53.989Z,55.60
2017-06-18T10:29:21.766Z,54.70
2017-06-18T10:31:49.313Z,54.40
2017-06-18T10:34:16.930Z,54.40
2017-06-18T10:36:44.482Z,54.30
2017-06-18T10:39:12.094Z,54.00
2017-06-18T10:41:39.646Z,54.40
2017-06-18T10:44:07.197Z,54.10
2017-06-18T10:46:35.965Z,52.80
2017-06-18T10:49:03.508Z,52.80
2017-06-18T10:51:31.045Z,52.40
2017-06-18T10:53:58.685Z,52.50
2017-06-18T10:56:26.222Z,52.40
2017-06-18T10:58:54.614Z,52.10
2017-06-18T11:01:22.159Z,52.70
2017-06-18T11:03:50.701Z,52.00
2017-06-18T11:06:18.398Z,52.00
2017-06-18T11:08:46.708Z,52.80
2017-06-18T11:11:14.278Z,52.20
2017-06-18T11:13:41.953Z,51.80
2017-06-18T11:16:09.491Z,52.10
2017-06-18T11:18:37.078Z,52.40
2017-06-18T11:21:05.273Z,52.20
2017-06-18T11:23:32.817Z,52.60
2017-06-18T11:26:00.413Z,53.10
2017-06-18T11:28:27.950Z,52.70
2017-06-18T11:30:55.490Z,52.30
2017-06-18T11:33:23.102Z,52.60
2017-06-18T11:35:51.410Z,51.80
2017-06-18T11:38:18.954Z,51.80
2017-06-18T11:40:47.033Z,51.70
2017-06-18T11:43:14.577Z,51.30
2017-06-18T11:45:42.885Z,51.10
2017-06-18T11:48:10.462Z,51.00
2017-06-18T11:50:38.352Z,51.30
2017-06-18T11:53:05.887Z,51.30
2017-06-18T11:55:34.698Z,51.50
2017-06-18T11:58:02.237Z,50.90
2017-06-18T12:00:29.777Z,50.70
2017-06-18T12:02:57.409Z,50.70
2017-06-18T12:05:25.798Z,50.50
2017-06-18T12:07:54.110Z,50.30
2017-06-18T12:10:21.691Z,50.30
2017-06-18T12:12:49.231Z,50.30
2017-06-18T12:15:17.242Z,50.30
2017-06-18T12:17:44.802Z,50.40
2017-06-18T12:20:12.387Z,50.00
2017-06-18T12:22:40.730Z,49.60
2017-06-18T12:25:08.355Z,49.60
2017-06-18T12:27:35.895Z,49.70
2017-06-18T12:30:04.285Z,50.00
2017-06-18T12:32:31.866Z,50.00
2017-06-18T12:34:59.410Z,49.90
2017-06-18T12:37:28.643Z,49.60
2017-06-18T12:39:56.178Z,49.50
2017-06-18T12:42:23.737Z,49.00
2017-06-18T12:44:51.569Z,49.00
2017-06-18T12:47:19.213Z,48.30
2017-06-18T12:49:46.755Z,48.10
2017-06-18T12:52:14.345Z,48.10
2017-06-18T12:54:41.888Z,48.40
2017-06-18T12:57:09.526Z,48.60
2017-06-18T12:59:37.066Z,48.80
2017-06-18T13:02:05.021Z,48.70
2017-06-18T13:04:32.565Z,48.10
2017-06-18T13:07:00.489Z,48.30
2017-06-18T13:09:28.822Z,48.40
2017-06-18T13:11:56.466Z,48.20
2017-06-18T13:14:24.083Z,48.30
2017-06-18T13:16:51.630Z,48.70
2017-06-18T13:19:19.183Z,48.90
2017-06-18T13:21:47.061Z,48.70
2017-06-18T13:24:14.694Z,47.80
2017-06-18T13:26:42.256Z,47.50
2017-06-18T13:29:09.829Z,47.30
2017-06-18T13:31:37.421Z,46.80
2017-06-18T13:34:05.743Z,46.80
2017-06-18T13:36:38.749Z,46.50
2017-06-18T13:39:06.302Z,46.20
2017-06-18T13:41:33.864Z,46.00
2017-06-18T13:44:01.546Z,46.00
2017-06-18T13:46:29.125Z,45.90
2017-06-18T13:48:56.709Z,45.70
2017-06-18T13:51:24.299Z,45.30
2017-06-18T13:53:51.863Z,44.80
2017-06-18T13:56:19.867Z,44.70
2017-06-18T13:58:47.417Z,44.50
2017-06-18T14:01:15.125Z,44.30
2017-06-18T14:03:43.002Z,44.60
2017-06-18T14:06:10.545Z,44.60
2017-06-18T14:08:39.267Z,44.70
2017-06-18T14:11:06.804Z,44.60
2017-06-18T14:13:34.349Z,44.90
2017-06-18T14:16:04.028Z,45.40
2017-06-18T14:18:31.595Z,45.40
2017-06-18T14:20:59.150Z,44.90
2017-06-18T14:23:26.753Z,44.60
2017-06-18T14:25:55.059Z,44.90
2017-06-18T14:28:22.596Z,44.70
2017-06-18T14:30:50.318Z,44.50
2017-06-18T14:33:17.865Z,44.80
2017-06-18T14:35:45.408Z,44.60
2017-06-18T14:38:13.034Z,44.00
2017-06-18T14:40:41.338Z,43.30
2017-06-18T14:43:08.879Z,43.80
2017-06-18T14:45:36.735Z,43.00
2017-06-18T14:48:05.041Z,43.40
2017-06-18T14:50:32.577Z,43.40
2017-06-18T14:53:03.066Z,43.60
2017-06-18T14:55:30.617Z,43.80
2017-06-18T14:57:58.163Z,43.90
2017-06-18T15:00:26.159Z,44.00
2017-06-18T15:02:53.693Z,43.90
2017-06-18T15:05:21.549Z,43.50
2017-06-18T15:07:49.594Z,44.00
2017-06-18T15:10:17.216Z,43.10
2017-06-18T15:12:44.773Z,43.00
2017-06-18T15:15:12.503Z,42.60
2017-06-18T15:17:40.074Z,42.30
2017-06-18T15:20:07.695Z,41.80
2017-06-18T15:22:36.009Z,40.60
2017-06-18T15:25:03.569Z,40.50
2017-06-18T15:27:31.200Z,40.10
2017-06-18T15:29:59.508Z,39.70
2017-06-18T15:32:27.051Z,39.60
2017-06-18T15:34:56.402Z,39.90
2017-06-18T15:37:23.940Z,40.70
2017-06-18T15:39:51.503Z,41.20
2017-06-18T15:42:19.111Z,41.10
2017-06-18T15:44:47.422Z,40.90
2017-06-18T15:47:14.962Z,40.90
2017-06-18T15:49:43.602Z,40.40
2017-06-18T15:52:11.145Z,40.30
2017-06-18T15:54:38.681Z,40.40
2017-06-18T15:57:06.277Z,39.90
2017-06-18T15:59:37.834Z,39.60
2017-06-18T16:02:06.087Z,39.10
2017-06-18T16:04:33.646Z,38.70
2017-06-18T16:07:01.194Z,38.40
2017-06-18T16:09:29.024Z,38.20
2017-06-18T16:11:56.561Z,38.20
2017-06-18T16:14:24.106Z,38.30
2017-06-18T16:16:51.807Z,38.00
2017-06-18T16:19:19.361Z,37.60
2017-06-18T16:21:47.315Z,37.10
2017-06-18T16:24:14.857Z,36.80
2017-06-18T16:26:42.402Z,36.70
2017-06-18T16:29:10.108Z,36.60
2017-06-18T16:31:37.650Z,36.50
2017-06-18T16:34:05.230Z,36.20
2017-06-18T16:36:32.786Z,35.80
2017-06-18T16:39:00.322Z,35.40
2017-06-18T16:41:27.906Z,35.00
2017-06-18T16:43:55.510Z,34.60
2017-06-18T16:46:23.074Z,34.60
2017-06-18T16:48:50.726Z,34.40
2017-06-18T16:51:19.051Z,33.60
2017-06-18T16:53:46.645Z,33.50
2017-06-18T16:56:14.187Z,33.20
2017-06-18T16:58:41.770Z,32.80
2017-06-18T17:01:09.313Z,32.50
2017-06-18T17:03:37.665Z,32.00
2017-06-18T17:06:05.210Z,31.70
2017-06-18T17:08:32.752Z,31.20
2017-06-18T17:11:00.510Z,31.40
2017-06-18T17:13:28.093Z,32.00
2017-06-18T17:15:55.638Z,32.50
2017-06-18T17:18:23.762Z,32.90
2017-06-18T17:20:51.305Z,33.30
2017-06-18T17:23:18.866Z,33.90
2017-06-18T17:25:46.753Z,34.80
2017-06-18T17:28:14.298Z,35.50
2017-06-18T17:30:41.922Z,35.70
2017-06-18T17:33:09.483Z,36.00
2017-06-18T17:35:37.029Z,36.20
2017-06-18T17:38:05.382Z,36.50
2017-06-18T17:40:32.914Z,36.40
2017-06-18T17:43:00.586Z,36.60
2017-06-18T17:45:28.121Z,37.50
2017-06-18T17:47:55.721Z,37.30
2017-06-18T17:50:23.713Z,37.80
2017-06-18T17:52:52.093Z,38.80
2017-06-18T17:55:20.406Z,39.30
2017-06-18T17:57:47.946Z,39.20
2017-06-18T18:00:16.350Z,40.00
2017-06-18T18:02:43.893Z,40.00
2017-06-18T18:05:14.475Z,40.50
2017-06-18T18:07:42.033Z,40.90
2017-06-18T18:10:09.591Z,41.40
2017-06-18T18:12:37.194Z,41.90
2017-06-18T18:15:05.506Z,42.30
2017-06-18T18:17:33.158Z,42.20
2017-06-18T18:20:00.726Z,42.40
2017-06-18T18:25:43.534Z,43.10
2017-06-18T18:28:11.910Z,43.70
2017-06-18T18:30:40.234Z,43.90
2017-06-18T18:33:07.781Z,43.80
2017-06-18T18:35:35.378Z,44.40
2017-06-18T18:38:02.927Z,44.80
2017-06-18T18:40:30.579Z,45.00
2017-06-18T18:48:44.474Z,45.80
2017-06-18T18:51:12.370Z,46.00
2017-06-18T18:53:39.926Z,46.30
2017-06-18T18:56:07.552Z,46.50
2017-06-18T18:58:35.110Z,47.30
2017-06-18T19:01:02.664Z,46.90
2017-06-18T19:03:31.892Z,47.20
2017-06-18T19:05:59.446Z,47.50
2017-06-18T19:08:27.010Z,47.80
2017-06-18T19:10:54.893Z,48.00
2017-06-18T19:13:22.439Z,48.30
2017-06-18T19:15:50.021Z,48.60
2017-06-18T19:18:17.558Z,48.80
2017-06-18T19:20:45.157Z,49.00
2017-06-18T19:23:13.476Z,49.40
2017-06-18T19:25:41.149Z,49.40
2017-06-18T19:28:09.126Z,49.60
2017-06-18T19:30:36.672Z,49.80
2017-06-18T19:33:05.758Z,50.00
2017-06-18T19:35:33.293Z,50.40
2017-06-18T19:38:00.850Z,50.60
2017-06-18T19:40:28.605Z,50.80
2017-06-18T19:42:56.917Z,51.50
2017-06-18T19:45:24.693Z,51.40
2017-06-18T19:47:52.281Z,51.80
2017-06-18T19:50:19.840Z,52.00
2017-06-18T19:52:47.482Z,52.40
2017-06-18T19:55:15.032Z,52.50
2017-06-18T19:57:48.293Z,52.80
2017-06-18T20:00:15.864Z,53.10
2017-06-18T20:02:43.519Z,53.40
2017-06-18T20:05:11.770Z,53.60
2017-06-18T20:07:39.323Z,53.80
2017-06-18T20:10:06.875Z,53.90
2017-06-18T20:12:34.486Z,54.00
2017-06-18T20:15:02.061Z,54.20
2017-06-18T20:17:29.618Z,54.30
2017-06-18T20:19:58.074Z,54.30
2017-06-18T20:22:25.704Z,54.40
2017-06-18T20:24:53.453Z,54.40
2017-06-18T20:27:21.771Z,54.20
2017-06-18T20:29:56.365Z,54.10
2017-06-18T20:32:24.721Z,54.20
2017-06-18T20:34:52.346Z,54.20
2017-06-18T20:37:19.906Z,54.50
2017-06-18T20:39:47.478Z,54.60
2017-06-18T20:42:15.450Z,54.80
2017-06-18T20:44:43.006Z,54.80
2017-06-18T20:47:10.566Z,55.00
2017-06-18T20:49:38.165Z,55.20
2017-06-18T20:52:06.483Z,55.50
2017-06-18T20:54:34.081Z,55.50
2017-06-18T20:57:01.678Z,55.40
2017-06-18T20:59:29.230Z,55.50
2017-06-18T21:01:57.725Z,55.60
2017-06-18T21:04:25.276Z,55.60
2017-06-18T21:06:53.639Z,55.70
2017-06-18T21:09:27.743Z,55.60
2017-06-18T21:11:58.290Z,55.60
2017-06-18T21:14:27.070Z,55.70
2017-06-18T21:17:03.612Z,55.80
2017-06-18T21:19:32.118Z,56.00
2017-06-18T21:22:06.679Z,56.10
2017-06-18T21:24:40.504Z,56.20
2017-06-18T21:27:21.177Z,56.40
2017-06-18T21:29:48.781Z,56.50
2017-06-18T21:38:04.662Z,56.40
2017-06-18T21:40:32.251Z,56.40
2017-06-18T21:42:59.874Z,56.40
2017-06-18T21:45:27.422Z,56.60
2017-06-18T21:47:54.973Z,56.70
2017-06-18T21:50:24.021Z,56.80
2017-06-18T21:52:51.644Z,56.90
2017-06-18T21:55:19.214Z,57.10
2017-06-18T21:57:46.818Z,57.20
2017-06-18T22:00:14.407Z,57.30
2017-06-18T22:02:42.726Z,58.10
2017-06-18T22:05:10.762Z,58.10
2017-06-18T22:07:38.330Z,58.40
2017-06-18T22:10:05.895Z,58.60
2017-06-18T22:12:33.490Z,58.80
2017-06-18T22:15:01.040Z,59.10
2017-06-18T22:20:41.269Z,59.60
2017-06-18T22:23:12.323Z,59.60
2017-06-18T22:25:39.886Z,59.60
2017-06-18T22:28:07.482Z,59.80
2017-06-18T22:30:35.035Z,60.20
2017-06-18T22:33:03.893Z,60.60
2017-06-18T22:35:31.460Z,61.00
2017-06-18T22:37:59.069Z,61.20
2017-06-18T22:40:28.908Z,61.50
2017-06-18T22:42:56.470Z,61.60
2017-06-18T22:45:24.994Z,62.00
2017-06-18T22:47:52.541Z,62.00
2017-06-18T22:50:20.086Z,62.10
2017-06-18T22:52:48.442Z,62.70
2017-06-18T22:55:15.993Z,62.60
2017-06-18T22:57:43.581Z,62.80
2017-06-18T23:00:11.886Z,63.20
2017-06-18T23:02:39.647Z,63.00
2017-06-18T23:05:07.194Z,63.90
2017-06-18T23:07:38.770Z,63.30
2017-06-18T23:10:06.358Z,63.40
2017-06-18T23:12:33.937Z,63.70
2017-06-18T23:15:01.496Z,64.00
2017-06-18T23:17:29.099Z,64.10
2017-06-18T23:19:56.650Z,64.20
2017-06-18T23:22:24.959Z,64.60
2017-06-18T23:24:52.855Z,64.50
2017-06-18T23:27:20.630Z,64.70
2017-06-18T23:29:48.177Z,65.50
2017-06-18T23:32:15.722Z,64.90
2017-06-18T23:34:43.305Z,65.00
2017-06-18T23:37:10.846Z,65.10
2017-06-18T23:39:38.458Z,65.50
2017-06-18T23:42:06.782Z,65.80
2017-06-18T23:44:34.454Z,65.80
2017-06-18T23:47:02.002Z,65.80
2017-06-18T23:49:29.742Z,66.00
2017-06-18T23:51:57.294Z,66.20
2017-06-18T23:54:25.602Z,66.30
2017-06-18T23:56:53.196Z,66.30
2017-06-18T23:59:23.288Z,66.50
